createdAt,value
2017-10-09T00:03:16.786Z,11.47
2017-10-09T00:23:52.978Z,11.57
2017-10-09T00:44:29.169Z,11.50
2017-10-09T01:05:04.440Z,11.25
2017-10-09T01:13:48.496Z,11.37
2017-10-09T01:16:22.351Z,11.21
2017-10-09T01:18:50.689Z,11.16
2017-10-09T01:21:19.059Z,11.22
2017-10-09T01:23:47.369Z,11.24
2017-10-09T01:26:15.667Z,11.31
2017-10-09T01:28:43.962Z,11.26
2017-10-09T01:31:12.255Z,11.27
2017-10-09T01:33:40.577Z,11.15
2017-10-09T01:36:09.646Z,11.15
2017-10-09T01:38:38.027Z,11.05
2017-10-09T01:41:06.332Z,11.02
2017-10-09T01:43:34.623Z,11.02
2017-10-09T01:46:02.918Z,11.08
2017-10-09T01:48:32.162Z,11.07
2017-10-09T01:51:01.745Z,11.08
2017-10-09T01:53:30.017Z,11.11
2017-10-09T01:55:58.420Z,11.08
2017-10-09T01:58:26.783Z,11.05
2017-10-09T02:00:55.157Z,11.14
2017-10-09T02:03:23.498Z,11.20
2017-10-09T02:05:51.808Z,11.03
2017-10-09T02:08:20.427Z,11.06
2017-10-09T02:10:48.707Z,11.16
2017-10-09T02:13:17.764Z,11.13
2017-10-09T02:15:46.054Z,11.03
2017-10-09T02:18:14.322Z,11.00
2017-10-09T02:20:42.639Z,10.96
2017-10-09T02:23:10.921Z,11.00
2017-10-09T02:25:40.274Z,11.12
2017-10-09T02:28:08.549Z,11.06
2017-10-09T02:30:37.312Z,10.96
2017-10-09T02:33:05.614Z,10.96
2017-10-09T02:35:33.899Z,10.98
2017-10-09T02:38:02.243Z,11.09
2017-10-09T02:40:30.525Z,11.12
2017-10-09T02:42:59.086Z,11.07
2017-10-09T02:45:27.377Z,10.97
2017-10-09T02:47:56.406Z,10.90
2017-10-09T02:50:25.228Z,10.85
2017-10-09T02:52:53.510Z,10.82
2017-10-09T02:55:21.900Z,10.85
2017-10-09T02:57:50.192Z,10.92
2017-10-09T03:00:18.505Z,10.91
2017-10-09T03:02:46.804Z,11.00
2017-10-09T03:05:15.115Z,11.03
2017-10-09T03:07:43.437Z,10.93
2017-10-09T03:10:11.716Z,10.84
2017-10-09T03:12:40.019Z,10.77
2017-10-09T03:15:08.324Z,10.85
2017-10-09T03:17:36.647Z,10.83
2017-10-09T03:20:05.019Z,11.00
2017-10-09T03:22:33.311Z,11.07
2017-10-09T03:25:01.603Z,11.12
2017-10-09T03:27:30.285Z,11.10
2017-10-09T03:30:00.249Z,11.12
2017-10-09T03:32:29.302Z,11.19
2017-10-09T03:34:57.615Z,11.19
2017-10-09T03:37:26.000Z,11.10
2017-10-09T03:39:55.060Z,11.12
2017-10-09T03:42:24.318Z,11.10
2017-10-09T03:44:53.353Z,11.11
2017-10-09T03:47:21.672Z,11.14
2017-10-09T03:49:50.739Z,10.98
2017-10-09T03:52:19.023Z,11.00
2017-10-09T03:54:47.307Z,11.04
2017-10-09T03:57:15.600Z,11.05
2017-10-09T03:59:44.198Z,10.84
2017-10-09T04:02:13.249Z,10.77
2017-10-09T04:04:41.542Z,10.81
2017-10-09T04:07:09.874Z,10.95
2017-10-09T04:09:38.159Z,10.92
2017-10-09T04:12:06.762Z,10.98
2017-10-09T04:14:35.042Z,11.03
2017-10-09T04:17:03.313Z,10.99
2017-10-09T04:19:31.610Z,11.01
2017-10-09T04:21:59.885Z,11.05
2017-10-09T04:24:28.248Z,11.05
2017-10-09T04:26:56.529Z,11.01
2017-10-09T04:29:24.814Z,10.84
2017-10-09T04:31:53.121Z,10.95
2017-10-09T04:34:22.174Z,10.98
2017-10-09T04:36:50.696Z,11.02
2017-10-09T04:39:18.983Z,10.92
2017-10-09T04:41:47.280Z,10.89
2017-10-09T04:44:16.358Z,10.87
2017-10-09T04:46:45.424Z,10.96
2017-10-09T04:49:13.725Z,10.97
2017-10-09T04:51:42.766Z,10.80
2017-10-09T04:54:11.084Z,10.81
2017-10-09T04:56:39.409Z,10.85
2017-10-09T04:59:07.705Z,10.91
2017-10-09T05:01:36.002Z,10.92
2017-10-09T05:04:04.276Z,10.94
2017-10-09T05:06:32.586Z,10.96
2017-10-09T05:09:00.896Z,10.93
2017-10-09T05:11:29.191Z,10.86
2017-10-09T05:13:57.493Z,10.88
2017-10-09T05:16:25.818Z,10.92
2017-10-09T05:18:54.872Z,10.72
2017-10-09T05:21:24.560Z,10.70
2017-10-09T05:23:52.853Z,10.70
2017-10-09T05:26:21.148Z,10.70
2017-10-09T05:28:49.452Z,10.73
2017-10-09T05:31:17.761Z,10.58
2017-10-09T05:33:46.080Z,10.59
2017-10-09T05:36:14.356Z,10.60
2017-10-09T05:38:42.676Z,10.61
2017-10-09T05:41:10.973Z,10.53
2017-10-09T05:43:39.284Z,10.51
2017-10-09T05:46:07.591Z,10.45
2017-10-09T05:48:35.868Z,10.45
2017-10-09T05:51:04.187Z,10.34
2017-10-09T05:53:32.491Z,10.37
2017-10-09T05:56:00.794Z,10.18
2017-10-09T05:58:30.034Z,10.22
2017-10-09T06:00:58.316Z,10.13
2017-10-09T06:03:26.603Z,10.23
2017-10-09T06:05:54.912Z,10.30
2017-10-09T06:08:23.183Z,10.29
2017-10-09T06:10:51.461Z,10.31
2017-10-09T06:13:19.765Z,10.07
2017-10-09T06:15:48.153Z,10.06
2017-10-09T06:18:16.484Z,10.05
2017-10-09T06:20:44.801Z,10.06
2017-10-09T06:23:13.127Z,10.01
2017-10-09T06:25:41.716Z,10.15
2017-10-09T06:28:10.011Z,10.15
2017-10-09T06:30:38.293Z,9.96
2017-10-09T06:33:06.578Z,10.02
2017-10-09T06:35:35.513Z,10.14
2017-10-09T06:38:04.871Z,10.21
2017-10-09T06:40:33.152Z,10.24
2017-10-09T06:43:01.435Z,10.28
2017-10-09T06:45:29.747Z,10.33
2017-10-09T06:47:59.290Z,10.37
2017-10-09T06:50:27.627Z,10.36
2017-10-09T06:52:55.910Z,10.38
2017-10-09T06:55:24.762Z,10.39
2017-10-09T06:57:53.047Z,10.41
2017-10-09T07:00:21.334Z,10.41
2017-10-09T07:02:49.738Z,10.40
2017-10-09T07:05:18.011Z,10.42
2017-10-09T07:07:46.332Z,10.44
2017-10-09T07:10:14.605Z,10.50
2017-10-09T07:12:42.898Z,10.49
2017-10-09T07:15:11.212Z,10.45
2017-10-09T07:17:39.511Z,10.52
2017-10-09T07:20:08.888Z,10.50
2017-10-09T07:22:37.955Z,10.58
2017-10-09T07:25:06.256Z,10.60
2017-10-09T07:27:34.557Z,10.57
2017-10-09T07:30:02.918Z,10.48
2017-10-09T07:32:31.713Z,10.54
2017-10-09T07:35:00.013Z,10.62
2017-10-09T07:37:29.072Z,10.67
2017-10-09T07:39:59.041Z,10.73
2017-10-09T07:42:28.586Z,10.71
2017-10-09T07:44:56.905Z,10.66
2017-10-09T07:47:25.976Z,10.64
2017-10-09T07:49:54.309Z,10.69
2017-10-09T07:52:30.797Z,10.74
2017-10-09T07:55:08.214Z,10.79
2017-10-09T07:57:42.574Z,10.78
2017-10-09T08:00:13.984Z,10.87
2017-10-09T08:02:42.996Z,10.78
2017-10-09T08:05:11.290Z,10.81
2017-10-09T08:07:40.353Z,10.88
2017-10-09T08:10:08.659Z,10.93
2017-10-09T08:12:36.944Z,11.02
2017-10-09T08:15:06.335Z,11.13
2017-10-09T08:17:34.627Z,11.16
2017-10-09T08:20:02.921Z,11.17
2017-10-09T08:22:31.265Z,11.24
2017-10-09T08:24:59.577Z,11.24
2017-10-09T08:27:28.671Z,11.32
2017-10-09T08:29:56.958Z,11.28
2017-10-09T08:32:25.679Z,11.38
2017-10-09T08:34:53.967Z,11.51
2017-10-09T08:37:22.259Z,11.60
2017-10-09T08:42:25.058Z,11.87
2017-10-09T08:44:53.406Z,11.97
2017-10-09T08:47:21.748Z,12.12
2017-10-09T08:49:50.856Z,12.24
2017-10-09T08:52:19.193Z,12.33
2017-10-09T08:57:21.414Z,12.48
2017-10-09T08:59:50.530Z,12.56
2017-10-09T09:07:25.771Z,12.75
2017-10-09T09:15:01.338Z,13.08
2017-10-09T09:22:36.556Z,13.38
2017-10-09T09:27:39.224Z,13.52
2017-10-09T09:40:21.615Z,13.68
2017-10-09T09:42:50.719Z,13.77
2017-10-09T09:50:26.007Z,13.93
2017-10-09T09:52:54.318Z,13.94
2017-10-09T09:55:22.635Z,14.00
2017-10-09T09:57:51.012Z,14.04
2017-10-09T10:00:19.339Z,14.02
2017-10-09T10:02:47.635Z,14.03
2017-10-09T10:05:15.942Z,14.08
2017-10-09T10:07:44.240Z,14.13
2017-10-09T10:10:13.615Z,14.13
2017-10-09T10:12:42.080Z,14.17
2017-10-09T10:15:17.799Z,14.20
2017-10-09T10:17:55.880Z,14.22
2017-10-09T10:20:34.175Z,14.22
2017-10-09T10:23:12.779Z,14.23
2017-10-09T10:25:50.630Z,14.25
2017-10-09T10:28:28.158Z,14.31
2017-10-09T10:31:06.110Z,14.34
2017-10-09T10:33:40.653Z,14.39
2017-10-09T10:36:17.902Z,14.46
2017-10-09T10:38:55.328Z,14.50
2017-10-09T10:41:32.636Z,14.52
2017-10-09T10:44:11.218Z,14.59
2017-10-09T10:46:41.496Z,14.62
2017-10-09T10:49:19.638Z,14.72
2017-10-09T10:51:59.171Z,14.75
2017-10-09T10:54:36.178Z,14.73
2017-10-09T10:57:14.632Z,14.68
2017-10-09T10:59:52.881Z,14.60
2017-10-09T11:02:33.036Z,14.59
2017-10-09T11:05:10.729Z,14.59
2017-10-09T11:07:48.983Z,14.64
2017-10-09T11:10:26.294Z,14.70
2017-10-09T11:13:04.208Z,14.74
2017-10-09T11:15:42.302Z,14.78
2017-10-09T11:18:11.805Z,14.84
2017-10-09T11:20:47.634Z,14.89
2017-10-09T11:23:25.539Z,14.95
2017-10-09T11:26:03.543Z,15.00
2017-10-09T11:28:40.888Z,15.02
2017-10-09T11:31:19.551Z,15.06
2017-10-09T11:33:57.293Z,15.17
2017-10-09T11:36:34.979Z,15.20
2017-10-09T11:39:12.459Z,15.25
2017-10-09T11:41:50.979Z,15.23
2017-10-09T11:44:28.303Z,15.27
2017-10-09T11:47:06.361Z,15.32
2017-10-09T11:49:37.735Z,15.30
2017-10-09T11:52:15.673Z,15.38
2017-10-09T11:54:44.462Z,15.43
2017-10-09T11:57:12.772Z,15.56
2017-10-09T11:59:41.078Z,15.59
2017-10-09T12:02:09.399Z,15.58
2017-10-09T12:04:37.727Z,15.61
2017-10-09T12:07:06.006Z,15.57
2017-10-09T12:09:34.314Z,15.61
2017-10-09T12:12:03.798Z,15.61
2017-10-09T12:14:32.852Z,15.64
2017-10-09T12:17:01.155Z,15.69
2017-10-09T12:19:29.428Z,15.64
2017-10-09T12:21:57.736Z,15.69
2017-10-09T12:24:26.817Z,15.68
2017-10-09T12:26:55.096Z,15.65
2017-10-09T12:29:23.402Z,15.70
2017-10-09T12:31:51.693Z,15.73
2017-10-09T12:34:20.291Z,15.79
2017-10-09T12:36:48.617Z,15.81
2017-10-09T12:39:16.929Z,15.85
2017-10-09T12:41:45.266Z,15.87
2017-10-09T12:44:14.337Z,15.83
2017-10-09T12:46:43.039Z,15.76
2017-10-09T12:49:11.328Z,15.68
2017-10-09T12:51:39.635Z,15.64
2017-10-09T12:54:07.952Z,15.71
2017-10-09T12:56:36.240Z,15.79
2017-10-09T12:59:04.546Z,15.91
2017-10-09T13:01:32.843Z,15.96
2017-10-09T13:04:01.164Z,15.97
2017-10-09T13:06:29.488Z,16.07
2017-10-09T13:08:58.512Z,16.08
2017-10-09T13:11:26.835Z,15.98
2017-10-09T13:13:55.179Z,15.95
2017-10-09T13:16:23.495Z,15.98
2017-10-09T13:18:52.192Z,15.98
2017-10-09T13:21:20.493Z,16.00
2017-10-09T13:23:48.808Z,15.99
2017-10-09T13:26:17.103Z,15.97
2017-10-09T13:28:45.430Z,15.98
2017-10-09T13:31:14.508Z,16.02
2017-10-09T13:33:42.791Z,16.00
2017-10-09T13:36:11.480Z,16.08
2017-10-09T13:38:40.139Z,15.99
2017-10-09T13:41:08.441Z,16.02
2017-10-09T13:43:36.717Z,15.98
2017-10-09T13:46:05.067Z,16.02
2017-10-09T13:48:33.419Z,16.03
2017-10-09T14:03:52.613Z,16.19
2017-10-09T14:06:20.936Z,16.22
2017-10-09T14:11:23.468Z,16.10
2017-10-09T14:16:25.295Z,16.07
2017-10-09T14:24:02.800Z,16.14
2017-10-09T14:41:31.462Z,16.48
2017-10-09T14:43:59.803Z,16.39
2017-10-09T14:46:28.914Z,16.32
2017-10-09T14:48:58.130Z,16.27
2017-10-09T14:51:26.553Z,16.25
2017-10-09T14:53:54.868Z,16.23
2017-10-09T14:56:23.967Z,16.19
2017-10-09T14:58:52.918Z,16.15
2017-10-09T15:01:21.245Z,16.15
2017-10-09T15:03:49.596Z,16.15
2017-10-09T15:06:17.954Z,16.12
2017-10-09T15:08:46.286Z,16.01
2017-10-09T15:11:14.633Z,15.98
2017-10-09T15:13:42.964Z,15.97
2017-10-09T15:16:12.454Z,15.96
2017-10-09T15:18:40.813Z,15.95
2017-10-09T15:21:10.294Z,15.88
2017-10-09T15:23:38.645Z,15.87
2017-10-09T15:26:06.972Z,15.85
2017-10-09T15:28:35.333Z,15.73
2017-10-09T15:31:03.704Z,15.73
2017-10-09T15:33:32.077Z,15.67
2017-10-09T15:36:00.413Z,15.59
2017-10-09T15:38:28.758Z,15.53
2017-10-09T15:40:57.166Z,15.50
2017-10-09T15:43:25.546Z,15.50
2017-10-09T15:45:53.907Z,15.53
2017-10-09T15:48:22.248Z,15.52
2017-10-09T15:50:50.570Z,15.54
2017-10-09T15:53:18.913Z,15.56
2017-10-09T15:55:48.153Z,15.54
2017-10-09T15:58:16.445Z,15.45
2017-10-09T16:00:44.818Z,15.36
2017-10-09T16:03:13.922Z,15.31
2017-10-09T16:05:42.531Z,15.31
2017-10-09T16:08:10.862Z,15.30
2017-10-09T16:10:39.204Z,15.22
2017-10-09T16:13:07.561Z,15.18
2017-10-09T16:15:35.894Z,15.13
2017-10-09T16:18:04.251Z,15.14
2017-10-09T16:20:41.048Z,15.01
2017-10-09T16:23:10.199Z,15.01
2017-10-09T16:25:38.591Z,14.96
2017-10-09T16:28:06.932Z,14.84
2017-10-09T16:30:36.435Z,14.78
2017-10-09T16:33:05.665Z,14.75
2017-10-09T16:35:33.989Z,14.71
2017-10-09T16:38:02.357Z,14.68
2017-10-09T16:40:30.723Z,14.69
2017-10-09T16:42:59.043Z,14.68
2017-10-09T16:45:27.397Z,14.63
2017-10-09T16:47:56.451Z,14.55
2017-10-09T16:50:24.821Z,14.54
2017-10-09T16:52:53.154Z,14.45
2017-10-09T16:55:21.538Z,14.38
2017-10-09T16:57:49.890Z,14.35
2017-10-09T17:00:18.220Z,14.31
2017-10-09T17:02:47.365Z,14.25
2017-10-09T17:05:15.727Z,14.25
2017-10-09T17:07:44.385Z,14.15
2017-10-09T17:10:13.879Z,14.11
2017-10-09T17:12:42.216Z,14.05
2017-10-09T17:15:10.582Z,14.03
2017-10-09T17:17:38.932Z,13.94
2017-10-09T17:20:07.286Z,13.92
2017-10-09T17:22:35.619Z,13.88
2017-10-09T17:25:04.219Z,13.88
2017-10-09T17:27:32.539Z,13.81
2017-10-09T17:30:01.643Z,13.80
2017-10-09T17:32:29.986Z,13.81
2017-10-09T17:34:58.316Z,13.76
2017-10-09T17:37:27.676Z,13.80
2017-10-09T17:39:56.030Z,13.74
2017-10-09T17:42:24.410Z,13.69
2017-10-09T17:44:52.748Z,13.64
2017-10-09T17:47:21.848Z,13.64
2017-10-09T17:49:51.038Z,13.64
2017-10-09T17:52:20.160Z,13.70
2017-10-09T17:54:49.684Z,13.66
2017-10-09T17:57:18.079Z,13.67
2017-10-09T17:59:46.826Z,13.61
2017-10-09T18:02:15.285Z,13.58
2017-10-09T18:04:43.617Z,13.53
2017-10-09T18:07:11.970Z,13.54
2017-10-09T18:09:41.067Z,13.55
2017-10-09T18:12:09.413Z,13.56
2017-10-09T18:14:38.227Z,13.59
2017-10-09T18:17:07.351Z,13.59
2017-10-09T18:19:35.711Z,13.50
2017-10-09T18:22:04.074Z,13.46
2017-10-09T18:24:32.414Z,13.52
2017-10-09T18:27:00.749Z,13.51
2017-10-09T18:29:29.880Z,13.53
2017-10-09T18:31:58.217Z,13.47
2017-10-09T18:34:26.568Z,13.44
2017-10-09T18:36:54.892Z,13.43
2017-10-09T18:39:23.269Z,13.35
2017-10-09T18:41:51.608Z,13.32
2017-10-09T18:44:19.928Z,13.32
2017-10-09T18:46:48.287Z,13.35
2017-10-09T18:49:17.439Z,13.35
2017-10-09T18:51:46.709Z,13.35
2017-10-09T18:54:15.045Z,13.26
2017-10-09T18:56:44.211Z,13.32
2017-10-09T18:59:12.543Z,13.30
2017-10-09T19:01:40.884Z,13.24
2017-10-09T19:04:09.242Z,13.29
2017-10-09T19:06:37.574Z,13.30
2017-10-09T19:09:06.738Z,13.23
2017-10-09T19:11:35.098Z,13.33
2017-10-09T19:14:03.746Z,13.24
2017-10-09T19:16:32.072Z,13.29
2017-10-09T19:19:00.421Z,13.28
2017-10-09T19:21:28.894Z,13.25
2017-10-09T19:23:58.038Z,13.22
2017-10-09T19:26:26.419Z,13.19
2017-10-09T19:28:54.766Z,13.08
2017-10-09T19:31:23.132Z,13.02
2017-10-09T19:33:51.476Z,13.14
2017-10-09T19:36:19.830Z,13.14
2017-10-09T19:38:48.961Z,12.98
2017-10-09T19:41:17.306Z,13.01
2017-10-09T19:43:45.666Z,12.95
2017-10-09T19:46:14.209Z,12.93
2017-10-09T19:48:44.158Z,12.82
2017-10-09T19:51:13.407Z,12.86
2017-10-09T19:53:42.488Z,12.99
2017-10-09T19:56:10.853Z,12.81
2017-10-09T19:58:39.220Z,12.79
2017-10-09T20:01:07.585Z,12.86
2017-10-09T20:03:36.175Z,12.79
2017-10-09T20:06:04.633Z,12.65
2017-10-09T20:08:32.960Z,12.62
2017-10-09T20:11:01.276Z,12.60
2017-10-09T20:13:29.636Z,12.55
2017-10-09T20:15:58.023Z,12.53
2017-10-09T20:18:26.420Z,12.54
2017-10-09T20:20:54.826Z,12.53
2017-10-09T20:23:24.010Z,12.47
2017-10-09T20:25:52.340Z,12.54
2017-10-09T20:28:20.667Z,12.54
2017-10-09T20:30:49.845Z,12.54
2017-10-09T20:33:18.475Z,12.48
2017-10-09T20:35:46.832Z,12.52
2017-10-09T20:38:15.650Z,12.55
2017-10-09T20:40:44.388Z,12.43
2017-10-09T20:43:12.715Z,12.50
2017-10-09T20:45:42.032Z,12.40
2017-10-09T20:48:10.375Z,12.43
2017-10-09T20:50:39.487Z,12.48
2017-10-09T20:53:07.832Z,12.35
2017-10-09T20:55:36.166Z,12.25
2017-10-09T20:58:04.525Z,12.40
2017-10-09T21:00:33.644Z,12.31
2017-10-09T21:03:01.961Z,12.21
2017-10-09T21:05:30.312Z,12.25
2017-10-09T21:07:58.628Z,12.38
2017-10-09T21:10:26.969Z,12.25
2017-10-09T21:12:55.296Z,12.24
2017-10-09T21:15:23.658Z,12.26
2017-10-09T21:17:52.006Z,12.29
2017-10-09T21:20:21.490Z,12.22
2017-10-09T21:22:49.851Z,12.31
2017-10-09T21:25:18.957Z,12.25
2017-10-09T21:27:47.309Z,12.27
2017-10-09T21:30:15.632Z,12.18
2017-10-09T21:32:43.997Z,12.18
2017-10-09T21:35:13.126Z,12.13
2017-10-09T21:37:41.440Z,12.09
2017-10-09T21:40:09.833Z,12.05
2017-10-09T21:42:38.177Z,12.02
2017-10-09T21:45:06.524Z,11.97
2017-10-09T21:47:34.852Z,12.04
2017-10-09T21:50:03.213Z,12.15
2017-10-09T21:52:31.540Z,12.09
2017-10-09T21:54:59.859Z,12.00
2017-10-09T21:57:28.199Z,12.07
2017-10-09T21:59:56.521Z,12.00
2017-10-09T22:02:24.896Z,12.00
2017-10-09T22:04:53.233Z,12.07
2017-10-09T22:07:22.363Z,12.05
2017-10-09T22:09:50.683Z,11.95
2017-10-09T22:12:19.016Z,11.98
2017-10-09T22:14:47.365Z,11.98
2017-10-09T22:17:17.276Z,11.94
2017-10-09T22:19:45.631Z,11.83
2017-10-09T22:22:14.101Z,11.72
2017-10-09T22:24:42.458Z,11.75
2017-10-09T22:27:10.767Z,11.87
2017-10-09T22:29:39.102Z,11.83
2017-10-09T22:32:07.438Z,11.77
2017-10-09T22:34:35.813Z,11.90
2017-10-09T22:37:04.165Z,11.84
2017-10-09T22:39:32.476Z,11.92
2017-10-09T22:42:01.395Z,11.74
2017-10-09T22:44:30.490Z,11.69
2017-10-09T22:46:58.841Z,11.55
2017-10-09T22:49:27.185Z,11.48
2017-10-09T22:51:55.495Z,11.40
2017-10-09T22:54:41.681Z,11.58
2017-10-09T22:57:10.014Z,11.61
2017-10-09T22:59:38.355Z,11.52
2017-10-09T23:02:06.693Z,11.44
2017-10-09T23:04:35.037Z,11.45
2017-10-09T23:07:03.380Z,11.46
2017-10-09T23:09:31.713Z,11.30
2017-10-09T23:12:00.832Z,11.29
2017-10-09T23:14:29.195Z,11.41
2017-10-09T23:16:57.860Z,11.44
2017-10-09T23:19:26.206Z,11.27
2017-10-09T23:21:54.530Z,11.31
2017-10-09T23:24:23.644Z,11.22
2017-10-09T23:26:51.964Z,11.05
2017-10-09T23:29:20.323Z,11.13
2017-10-09T23:31:48.638Z,11.10
2017-10-09T23:34:16.986Z,11.17
2017-10-09T23:36:45.326Z,11.13
2017-10-09T23:39:13.667Z,11.13
2017-10-09T23:41:42.003Z,11.10
2017-10-09T23:44:10.317Z,11.06
2017-10-09T23:46:38.675Z,11.16
2017-10-09T23:49:07.006Z,11.05
2017-10-09T23:51:35.362Z,11.04
2017-10-09T23:54:03.672Z,11.00
2017-10-09T23:56:31.987Z,11.01
2017-10-09T23:59:00.319Z,11.01
